In Rescue
 
Open Full Screen Window  High Contrast Mode
Wind Gusting 14 knots
05
June 22, 2024 9:40 PM CDT
Weather Information
Wind Direction
  310 °
Wind Speed
  05 kt (6 mph)
Wind Gust
  14 kt (16 mph)
Altimeter
29.77 in
Visibility
10 SM
Temperature
19° C
66° F
Dewpoint
18° C
64° F
Humidity
94%
Sky Condition
Overcast @ 800 ft
IFR

METAR KRGK 230240Z AUTO 31005G14KT 10SM OVC008 19/18 A2977 RMK AO2

FAA Disclaimer: The data displayed is for advisory purposes only and is not to be used for flight planning or operations.